sensor_id;sensor_type;location;lat;lon;timestamp;temperature;humidity
70074;DHT22;57445;51.058;3.698;2022-12-20T00:02:10;12.30;99.90
70074;DHT22;57445;51.058;3.698;2022-12-20T00:04:42;12.20;99.90
70074;DHT22;57445;51.058;3.698;2022-12-20T00:07:10;12.00;99.90
70074;DHT22;57445;51.058;3.698;2022-12-20T00:09:42;11.90;99.90
70074;DHT22;57445;51.058;3.698;2022-12-20T00:12:14;12.30;99.90
70074;DHT22;57445;51.058;3.698;2022-12-20T00:14:47;12.40;99.90
70074;DHT22;57445;51.058;3.698;2022-12-20T00:17:19;12.30;99.90
70074;DHT22;57445;51.058;3.698;2022-12-20T00:19:47;12.60;99.90
70074;DHT22;57445;51.058;3.698;2022-12-20T00:22:14;12.40;99.90
70074;DHT22;57445;51.058;3.698;2022-12-20T00:24:46;12.50;99.90
70074;DHT22;57445;51.058;3.698;2022-12-20T00:27:14;12.40;99.90
70074;DHT22;57445;51.058;3.698;2022-12-20T00:29:41;12.50;99.90
70074;DHT22;57445;51.058;3.698;2022-12-20T00:32:15;12.30;99.90
70074;DHT22;57445;51.058;3.698;2022-12-20T00:34:42;12.40;99.90
70074;DHT22;57445;51.058;3.698;2022-12-20T00:37:10;12.00;99.90
70074;DHT22;57445;51.058;3.698;2022-12-20T00:39:37;11.90;99.90
70074;DHT22;57445;51.058;3.698;2022-12-20T00:42:09;11.90;99.90
70074;DHT22;57445;51.058;3.698;2022-12-20T00:44:36;11.90;99.90
70074;DHT22;57445;51.058;3.698;2022-12-20T00:47:08;12.10;99.90
70074;DHT22;57445;51.058;3.698;2022-12-20T00:49:41;12.30;99.90
70074;DHT22;57445;51.058;3.698;2022-12-20T00:52:14;12.20;99.90
70074;DHT22;57445;51.058;3.698;2022-12-20T00:54:41;12.30;99.90
70074;DHT22;57445;51.058;3.698;2022-12-20T00:57:13;12.40;99.90
70074;DHT22;57445;51.058;3.698;2022-12-20T00:59:41;12.10;99.90
70074;DHT22;57445;51.058;3.698;2022-12-20T01:02:08;12.20;99.90
70074;DHT22;57445;51.058;3.698;2022-12-20T01:04:35;11.70;99.90
70074;DHT22;57445;51.058;3.698;2022-12-20T01:07:04;11.80;99.90
70074;DHT22;57445;51.058;3.698;2022-12-20T01:09:36;11.70;99.90
70074;DHT22;57445;51.058;3.698;2022-12-20T01:12:04;12.00;99.90
70074;DHT22;57445;51.058;3.698;2022-12-20T01:14:31;11.70;99.90
70074;DHT22;57445;51.058;3.698;2022-12-20T01:16:58;11.80;99.90
70074;DHT22;57445;51.058;3.698;2022-12-20T01:19:27;11.90;99.90
70074;DHT22;57445;51.058;3.698;2022-12-20T01:21:55;11.70;99.90
70074;DHT22;57445;51.058;3.698;2022-12-20T01:24:28;11.40;99.90
70074;DHT22;57445;51.058;3.698;2022-12-20T01:27:00;11.30;99.90
70074;DHT22;57445;51.058;3.698;2022-12-20T01:29:32;11.40;99.90
70074;DHT22;57445;51.058;3.698;2022-12-20T01:31:59;11.70;99.90
70074;DHT22;57445;51.058;3.698;2022-12-20T01:34:31;11.90;99.90
70074;DHT22;57445;51.058;3.698;2022-12-20T01:37:03;12.00;99.90
70074;DHT22;57445;51.058;3.698;2022-12-20T01:39:36;12.10;99.90
70074;DHT22;57445;51.058;3.698;2022-12-20T01:42:09;12.20;99.90
70074;DHT22;57445;51.058;3.698;2022-12-20T01:44:53;12.10;99.90
70074;DHT22;57445;51.058;3.698;2022-12-20T01:47:21;12.10;99.90
70074;DHT22;57445;51.058;3.698;2022-12-20T01:49:54;12.20;99.90
70074;DHT22;57445;51.058;3.698;2022-12-20T01:52:29;12.30;99.90
70074;DHT22;57445;51.058;3.698;2022-12-20T01:55:02;12.20;99.90
70074;DHT22;57445;51.058;3.698;2022-12-20T01:57:31;12.30;99.90
70074;DHT22;57445;51.058;3.698;2022-12-20T02:00:05;12.20;99.90
70074;DHT22;57445;51.058;3.698;2022-12-20T02:02:34;12.20;99.90
70074;DHT22;57445;51.058;3.698;2022-12-20T02:05:07;12.40;99.90
70074;DHT22;57445;51.058;3.698;2022-12-20T02:07:39;12.50;99.90
70074;DHT22;57445;51.058;3.698;2022-12-20T02:10:10;12.40;99.90
70074;DHT22;57445;51.058;3.698;2022-12-20T02:12:43;12.30;99.90
70074;DHT22;57445;51.058;3.698;2022-12-20T02:18:02;12.30;99.90
70074;DHT22;57445;51.058;3.698;2022-12-20T02:20:48;12.30;99.90
70074;DHT22;57445;51.058;3.698;2022-12-20T02:23:32;12.50;99.90
70074;DHT22;57445;51.058;3.698;2022-12-20T02:26:13;12.50;99.90
70074;DHT22;57445;51.058;3.698;2022-12-20T02:29:00;12.50;99.90
70074;DHT22;57445;51.058;3.698;2022-12-20T02:31:41;12.50;99.90
70074;DHT22;57445;51.058;3.698;2022-12-20T02:34:09;12.40;99.90
70074;DHT22;57445;51.058;3.698;2022-12-20T02:36:41;12.30;99.90
70074;DHT22;57445;51.058;3.698;2022-12-20T02:39:14;12.40;99.90
70074;DHT22;57445;51.058;3.698;2022-12-20T02:41:42;12.30;99.90
70074;DHT22;57445;51.058;3.698;2022-12-20T02:44:12;12.30;99.90
70074;DHT22;57445;51.058;3.698;2022-12-20T02:46:59;12.30;99.90
70074;DHT22;57445;51.058;3.698;2022-12-20T02:49:33;12.50;99.90
70074;DHT22;57445;51.058;3.698;2022-12-20T02:52:08;12.60;99.90
70074;DHT22;57445;51.058;3.698;2022-12-20T02:54:41;12.70;99.90
70074;DHT22;57445;51.058;3.698;2022-12-20T02:57:14;12.70;99.90
70074;DHT22;57445;51.058;3.698;2022-12-20T02:59:44;12.50;99.90
70074;DHT22;57445;51.058;3.698;2022-12-20T03:02:19;12.50;99.90
70074;DHT22;57445;51.058;3.698;2022-12-20T03:04:47;12.40;99.90
70074;DHT22;57445;51.058;3.698;2022-12-20T03:07:19;12.50;99.90
70074;DHT22;57445;51.058;3.698;2022-12-20T03:09:47;12.20;99.90
70074;DHT22;57445;51.058;3.698;2022-12-20T03:12:14;12.40;99.90
70074;DHT22;57445;51.058;3.698;2022-12-20T03:14:42;12.30;99.90
70074;DHT22;57445;51.058;3.698;2022-12-20T03:17:14;12.30;99.90
70074;DHT22;57445;51.058;3.698;2022-12-20T03:19:48;12.30;99.90
70074;DHT22;57445;51.058;3.698;2022-12-20T03:22:20;12.40;99.90
70074;DHT22;57445;51.058;3.698;2022-12-20T03:24:48;12.60;99.90
70074;DHT22;57445;51.058;3.698;2022-12-20T03:27:20;12.60;99.90
70074;DHT22;57445;51.058;3.698;2022-12-20T03:29:48;12.60;99.90
70074;DHT22;57445;51.058;3.698;2022-12-20T03:32:15;12.70;99.90
70074;DHT22;57445;51.058;3.698;2022-12-20T03:34:48;12.70;99.90
70074;DHT22;57445;51.058;3.698;2022-12-20T03:37:20;12.40;99.90
70074;DHT22;57445;51.058;3.698;2022-12-20T03:39:53;12.40;99.90
70074;DHT22;57445;51.058;3.698;2022-12-20T03:42:20;12.50;99.90
70074;DHT22;57445;51.058;3.698;2022-12-20T03:44:47;12.40;99.90
70074;DHT22;57445;51.058;3.698;2022-12-20T03:47:15;12.50;99.90
70074;DHT22;57445;51.058;3.698;2022-12-20T03:49:48;12.50;99.90
70074;DHT22;57445;51.058;3.698;2022-12-20T03:52:16;12.60;99.90
70074;DHT22;57445;51.058;3.698;2022-12-20T03:54:45;12.50;99.90
70074;DHT22;57445;51.058;3.698;2022-12-20T03:57:17;12.70;99.90
70074;DHT22;57445;51.058;3.698;2022-12-20T03:59:49;12.80;99.90
70074;DHT22;57445;51.058;3.698;2022-12-20T04:02:17;12.60;99.90
70074;DHT22;57445;51.058;3.698;2022-12-20T04:04:50;12.80;99.90
70074;DHT22;57445;51.058;3.698;2022-12-20T04:07:17;12.80;99.90
70074;DHT22;57445;51.058;3.698;2022-12-20T04:09:49;12.40;99.90
70074;DHT22;57445;51.058;3.698;2022-12-20T04:12:17;12.50;99.90
70074;DHT22;57445;51.058;3.698;2022-12-20T04:14:44;12.70;99.90
70074;DHT22;57445;51.058;3.698;2022-12-20T04:17:12;12.80;99.90
70074;DHT22;57445;51.058;3.698;2022-12-20T04:19:39;12.90;99.90
70074;DHT22;57445;51.058;3.698;2022-12-20T04:22:08;13.00;99.60
70074;DHT22;57445;51.058;3.698;2022-12-20T04:24:35;13.20;99.30
70074;DHT22;57445;51.058;3.698;2022-12-20T04:27:07;13.20;99.50
70074;DHT22;57445;51.058;3.698;2022-12-20T04:29:35;12.80;99.90
70074;DHT22;57445;51.058;3.698;2022-12-20T04:32:06;12.80;99.90
70074;DHT22;57445;51.058;3.698;2022-12-20T04:34:38;12.70;99.90
70074;DHT22;57445;51.058;3.698;2022-12-20T04:37:12;12.70;99.90
70074;DHT22;57445;51.058;3.698;2022-12-20T04:39:39;12.80;99.90
70074;DHT22;57445;51.058;3.698;2022-12-20T04:42:11;13.00;99.80
70074;DHT22;57445;51.058;3.698;2022-12-20T04:44:39;13.10;99.50
70074;DHT22;57445;51.058;3.698;2022-12-20T04:47:06;12.70;99.90
70074;DHT22;57445;51.058;3.698;2022-12-20T04:49:39;12.70;99.90
70074;DHT22;57445;51.058;3.698;2022-12-20T04:52:13;12.90;99.60
70074;DHT22;57445;51.058;3.698;2022-12-20T04:54:57;12.80;99.80
70074;DHT22;57445;51.058;3.698;2022-12-20T04:57:29;12.80;99.90
70074;DHT22;57445;51.058;3.698;2022-12-20T05:00:01;12.80;99.70
70074;DHT22;57445;51.058;3.698;2022-12-20T05:02:33;12.90;99.60
70074;DHT22;57445;51.058;3.698;2022-12-20T05:05:01;12.90;99.50
70074;DHT22;57445;51.058;3.698;2022-12-20T05:07:34;12.70;99.70
70074;DHT22;57445;51.058;3.698;2022-12-20T05:10:06;12.70;99.80
70074;DHT22;57445;51.058;3.698;2022-12-20T05:12:38;12.70;99.80
70074;DHT22;57445;51.058;3.698;2022-12-20T05:15:11;12.70;99.80
70074;DHT22;57445;51.058;3.698;2022-12-20T05:17:43;12.70;99.70
70074;DHT22;57445;51.058;3.698;2022-12-20T05:20:11;12.60;99.90
70074;DHT22;57445;51.058;3.698;2022-12-20T05:22:40;12.80;99.50
70074;DHT22;57445;51.058;3.698;2022-12-20T05:25:26;12.70;99.60
70074;DHT22;57445;51.058;3.698;2022-12-20T05:28:11;13.20;99.30
70074;DHT22;57445;51.058;3.698;2022-12-20T05:30:43;12.90;99.10
70074;DHT22;57445;51.058;3.698;2022-12-20T05:33:10;13.00;98.60
70074;DHT22;57445;51.058;3.698;2022-12-20T05:35:37;12.70;99.30
70074;DHT22;57445;51.058;3.698;2022-12-20T05:38:11;12.60;99.60
70074;DHT22;57445;51.058;3.698;2022-12-20T05:40:45;12.70;99.30
70074;DHT22;57445;51.058;3.698;2022-12-20T05:43:18;12.90;98.80
70074;DHT22;57445;51.058;3.698;2022-12-20T05:45:46;12.70;99.10
70074;DHT22;57445;51.058;3.698;2022-12-20T05:48:13;12.60;99.50
70074;DHT22;57445;51.058;3.698;2022-12-20T05:50:45;12.70;99.20
70074;DHT22;57445;51.058;3.698;2022-12-20T05:53:19;12.90;99.00
70074;DHT22;57445;51.058;3.698;2022-12-20T05:55:51;12.80;99.10
70074;DHT22;57445;51.058;3.698;2022-12-20T05:58:23;12.80;98.90
70074;DHT22;57445;51.058;3.698;2022-12-20T06:00:55;12.90;98.70
70074;DHT22;57445;51.058;3.698;2022-12-20T06:03:27;12.80;98.60
70074;DHT22;57445;51.058;3.698;2022-12-20T06:06:00;12.80;98.90
70074;DHT22;57445;51.058;3.698;2022-12-20T06:08:33;12.90;98.60
70074;DHT22;57445;51.058;3.698;2022-12-20T06:11:06;12.80;98.50
70074;DHT22;57445;51.058;3.698;2022-12-20T06:13:33;12.80;98.60
70074;DHT22;57445;51.058;3.698;2022-12-20T06:16:05;12.60;99.00
70074;DHT22;57445;51.058;3.698;2022-12-20T06:18:33;12.80;98.70
70074;DHT22;57445;51.058;3.698;2022-12-20T06:21:01;12.60;98.90
70074;DHT22;57445;51.058;3.698;2022-12-20T06:23:34;12.60;99.40
70074;DHT22;57445;51.058;3.698;2022-12-20T06:26:02;12.50;99.20
70074;DHT22;57445;51.058;3.698;2022-12-20T06:28:29;12.50;99.10
70074;DHT22;57445;51.058;3.698;2022-12-20T06:31:02;12.50;99.40
70074;DHT22;57445;51.058;3.698;2022-12-20T06:33:34;12.60;99.30
70074;DHT22;57445;51.058;3.698;2022-12-20T06:36:06;12.70;99.00
70074;DHT22;57445;51.058;3.698;2022-12-20T06:38:39;12.70;99.10
70074;DHT22;57445;51.058;3.698;2022-12-20T06:41:07;12.50;99.80
70074;DHT22;57445;51.058;3.698;2022-12-20T06:43:39;12.80;99.50
70074;DHT22;57445;51.058;3.698;2022-12-20T06:46:06;12.60;99.70
70074;DHT22;57445;51.058;3.698;2022-12-20T06:48:34;12.50;99.90
70074;DHT22;57445;51.058;3.698;2022-12-20T06:51:06;12.50;99.90
70074;DHT22;57445;51.058;3.698;2022-12-20T06:53:39;12.70;99.50
70074;DHT22;57445;51.058;3.698;2022-12-20T06:56:11;12.80;99.40
70074;DHT22;57445;51.058;3.698;2022-12-20T06:58:39;12.70;99.70
70074;DHT22;57445;51.058;3.698;2022-12-20T07:01:11;12.60;99.90
70074;DHT22;57445;51.058;3.698;2022-12-20T07:03:43;12.50;99.90
70074;DHT22;57445;51.058;3.698;2022-12-20T07:06:11;12.70;99.90
70074;DHT22;57445;51.058;3.698;2022-12-20T07:08:40;12.60;99.90
70074;DHT22;57445;51.058;3.698;2022-12-20T07:11:07;12.80;99.90
70074;DHT22;57445;51.058;3.698;2022-12-20T07:13:35;12.60;99.90
70074;DHT22;57445;51.058;3.698;2022-12-20T07:16:03;12.40;99.90
70074;DHT22;57445;51.058;3.698;2022-12-20T07:18:30;12.50;99.90
70074;DHT22;57445;51.058;3.698;2022-12-20T07:21:05;12.80;99.90
70074;DHT22;57445;51.058;3.698;2022-12-20T07:23:37;12.40;99.90
70074;DHT22;57445;51.058;3.698;2022-12-20T07:26:07;12.60;99.90
70074;DHT22;57445;51.058;3.698;2022-12-20T07:28:41;12.50;99.90
70074;DHT22;57445;51.058;3.698;2022-12-20T07:31:13;12.50;99.90
70074;DHT22;57445;51.058;3.698;2022-12-20T07:33:40;12.50;99.90
70074;DHT22;57445;51.058;3.698;2022-12-20T07:36:09;12.70;99.90
70074;DHT22;57445;51.058;3.698;2022-12-20T07:38:38;12.30;99.90
70074;DHT22;57445;51.058;3.698;2022-12-20T07:41:08;12.10;99.90
70074;DHT22;57445;51.058;3.698;2022-12-20T07:43:40;12.10;99.90
70074;DHT22;57445;51.058;3.698;2022-12-20T07:46:08;12.00;99.90
70074;DHT22;57445;51.058;3.698;2022-12-20T07:48:37;11.80;99.90
70074;DHT22;57445;51.058;3.698;2022-12-20T07:51:09;11.90;99.90
70074;DHT22;57445;51.058;3.698;2022-12-20T07:53:38;11.90;99.90
70074;DHT22;57445;51.058;3.698;2022-12-20T07:56:09;11.90;99.90
70074;DHT22;57445;51.058;3.698;2022-12-20T07:58:37;11.90;99.90
70074;DHT22;57445;51.058;3.698;2022-12-20T08:01:06;12.20;99.90
70074;DHT22;57445;51.058;3.698;2022-12-20T08:03:35;12.50;99.90
70074;DHT22;57445;51.058;3.698;2022-12-20T08:06:04;12.40;99.90
70074;DHT22;57445;51.058;3.698;2022-12-20T08:08:33;12.30;99.90
70074;DHT22;57445;51.058;3.698;2022-12-20T08:11:07;12.10;99.90
70074;DHT22;57445;51.058;3.698;2022-12-20T08:13:40;12.00;99.90
70074;DHT22;57445;51.058;3.698;2022-12-20T08:16:13;11.80;99.90
70074;DHT22;57445;51.058;3.698;2022-12-20T08:18:40;11.80;99.90
70074;DHT22;57445;51.058;3.698;2022-12-20T08:21:08;11.90;99.90
70074;DHT22;57445;51.058;3.698;2022-12-20T08:23:38;11.80;99.90
70074;DHT22;57445;51.058;3.698;2022-12-20T08:26:05;11.90;99.90
70074;DHT22;57445;51.058;3.698;2022-12-20T08:28:33;12.10;99.90
70074;DHT22;57445;51.058;3.698;2022-12-20T08:31:06;12.20;99.90
70074;DHT22;57445;51.058;3.698;2022-12-20T08:33:35;12.10;99.90
70074;DHT22;57445;51.058;3.698;2022-12-20T08:36:04;12.40;99.90
70074;DHT22;57445;51.058;3.698;2022-12-20T08:38:31;12.50;99.90
70074;DHT22;57445;51.058;3.698;2022-12-20T08:41:00;12.60;99.90
70074;DHT22;57445;51.058;3.698;2022-12-20T08:43:28;12.50;99.90
70074;DHT22;57445;51.058;3.698;2022-12-20T08:45:55;12.40;99.90
70074;DHT22;57445;51.058;3.698;2022-12-20T08:48:25;12.40;99.90
70074;DHT22;57445;51.058;3.698;2022-12-20T08:50:53;12.30;99.90
70074;DHT22;57445;51.058;3.698;2022-12-20T08:53:21;12.20;99.90
70074;DHT22;57445;51.058;3.698;2022-12-20T08:55:49;12.40;99.90
70074;DHT22;57445;51.058;3.698;2022-12-20T08:58:21;12.40;99.90
70074;DHT22;57445;51.058;3.698;2022-12-20T09:00:53;12.60;99.90
70074;DHT22;57445;51.058;3.698;2022-12-20T09:03:20;12.50;99.90
70074;DHT22;57445;51.058;3.698;2022-12-20T09:05:54;12.30;99.90
70074;DHT22;57445;51.058;3.698;2022-12-20T09:08:26;12.20;99.90
70074;DHT22;57445;51.058;3.698;2022-12-20T09:11:02;12.40;99.90
70074;DHT22;57445;51.058;3.698;2022-12-20T09:13:34;12.50;99.90
70074;DHT22;57445;51.058;3.698;2022-12-20T09:16:06;12.50;99.90
70074;DHT22;57445;51.058;3.698;2022-12-20T09:18:39;12.60;99.90
70074;DHT22;57445;51.058;3.698;2022-12-20T09:21:12;12.80;99.90
70074;DHT22;57445;51.058;3.698;2022-12-20T09:23:44;12.80;99.90
70074;DHT22;57445;51.058;3.698;2022-12-20T09:26:17;12.90;99.90
70074;DHT22;57445;51.058;3.698;2022-12-20T09:28:45;12.70;99.90
70074;DHT22;57445;51.058;3.698;2022-12-20T09:31:19;12.80;99.90
70074;DHT22;57445;51.058;3.698;2022-12-20T09:33:46;12.80;99.90
70074;DHT22;57445;51.058;3.698;2022-12-20T09:36:20;12.60;99.90
70074;DHT22;57445;51.058;3.698;2022-12-20T09:38:48;12.70;99.90
70074;DHT22;57445;51.058;3.698;2022-12-20T09:41:18;12.30;99.90
70074;DHT22;57445;51.058;3.698;2022-12-20T09:43:47;12.20;99.90
70074;DHT22;57445;51.058;3.698;2022-12-20T09:46:14;12.50;99.90
70074;DHT22;57445;51.058;3.698;2022-12-20T09:48:47;12.60;99.90
70074;DHT22;57445;51.058;3.698;2022-12-20T09:51:19;12.40;99.90
70074;DHT22;57445;51.058;3.698;2022-12-20T09:53:55;12.40;99.90
70074;DHT22;57445;51.058;3.698;2022-12-20T09:56:31;12.50;99.90
70074;DHT22;57445;51.058;3.698;2022-12-20T09:59:05;12.40;99.90
70074;DHT22;57445;51.058;3.698;2022-12-20T10:01:40;12.20;99.90
70074;DHT22;57445;51.058;3.698;2022-12-20T10:04:11;12.20;99.90
70074;DHT22;57445;51.058;3.698;2022-12-20T10:06:47;12.20;99.90
70074;DHT22;57445;51.058;3.698;2022-12-20T10:09:35;12.30;99.90
70074;DHT22;57445;51.058;3.698;2022-12-20T10:12:10;12.40;99.90
70074;DHT22;57445;51.058;3.698;2022-12-20T10:14:49;12.90;99.90
70074;DHT22;57445;51.058;3.698;2022-12-20T10:17:24;13.30;99.90
70074;DHT22;57445;51.058;3.698;2022-12-20T10:19:58;13.30;99.90
70074;DHT22;57445;51.058;3.698;2022-12-20T10:22:32;12.70;99.90
70074;DHT22;57445;51.058;3.698;2022-12-20T10:25:15;12.90;99.90
70074;DHT22;57445;51.058;3.698;2022-12-20T10:27:43;12.80;99.90
70074;DHT22;57445;51.058;3.698;2022-12-20T10:30:17;12.50;99.90
70074;DHT22;57445;51.058;3.698;2022-12-20T10:32:53;12.40;99.90
70074;DHT22;57445;51.058;3.698;2022-12-20T10:35:22;12.40;99.90
70074;DHT22;57445;51.058;3.698;2022-12-20T10:37:57;12.50;99.90
70074;DHT22;57445;51.058;3.698;2022-12-20T10:40:27;12.30;99.90
70074;DHT22;57445;51.058;3.698;2022-12-20T10:43:00;12.50;99.90
70074;DHT22;57445;51.058;3.698;2022-12-20T10:45:33;12.70;99.90
70074;DHT22;57445;51.058;3.698;2022-12-20T10:48:02;12.80;99.90
70074;DHT22;57445;51.058;3.698;2022-12-20T10:50:30;13.10;99.90
70074;DHT22;57445;51.058;3.698;2022-12-20T10:53:17;12.90;99.90
70074;DHT22;57445;51.058;3.698;2022-12-20T10:55:47;13.00;99.90
70074;DHT22;57445;51.058;3.698;2022-12-20T10:58:21;12.90;99.90
70074;DHT22;57445;51.058;3.698;2022-12-20T11:01:02;13.10;99.90
70074;DHT22;57445;51.058;3.698;2022-12-20T11:06:22;13.30;99.90
70074;DHT22;57445;51.058;3.698;2022-12-20T11:11:48;12.30;99.90
70074;DHT22;57445;51.058;3.698;2022-12-20T11:14:23;12.40;99.90
70074;DHT22;57445;51.058;3.698;2022-12-20T11:16:50;12.30;99.90
70074;DHT22;57445;51.058;3.698;2022-12-20T11:19:29;12.60;99.90
70074;DHT22;57445;51.058;3.698;2022-12-20T11:22:03;12.50;99.90
70074;DHT22;57445;51.058;3.698;2022-12-20T11:24:38;12.60;99.90
70074;DHT22;57445;51.058;3.698;2022-12-20T11:27:14;13.00;99.90
70074;DHT22;57445;51.058;3.698;2022-12-20T11:30:01;13.00;99.90
70074;DHT22;57445;51.058;3.698;2022-12-20T11:32:34;12.90;99.90
70074;DHT22;57445;51.058;3.698;2022-12-20T11:35:06;13.00;99.90
70074;DHT22;57445;51.058;3.698;2022-12-20T11:37:37;13.40;99.90
70074;DHT22;57445;51.058;3.698;2022-12-20T11:40:10;13.30;99.90
70074;DHT22;57445;51.058;3.698;2022-12-20T11:42:53;13.10;99.90
70074;DHT22;57445;51.058;3.698;2022-12-20T11:45:24;13.00;99.90
70074;DHT22;57445;51.058;3.698;2022-12-20T11:48:07;13.00;99.90
70074;DHT22;57445;51.058;3.698;2022-12-20T11:50:41;12.60;99.90
70074;DHT22;57445;51.058;3.698;2022-12-20T11:53:12;12.70;99.90
70074;DHT22;57445;51.058;3.698;2022-12-20T11:55:48;12.90;99.90
70074;DHT22;57445;51.058;3.698;2022-12-20T11:58:20;13.00;99.90
70074;DHT22;57445;51.058;3.698;2022-12-20T12:00:56;12.60;99.90
70074;DHT22;57445;51.058;3.698;2022-12-20T12:03:29;12.60;99.90
70074;DHT22;57445;51.058;3.698;2022-12-20T12:05:59;12.40;99.90
70074;DHT22;57445;51.058;3.698;2022-12-20T12:08:35;12.50;99.90
70074;DHT22;57445;51.058;3.698;2022-12-20T12:11:05;12.50;99.90
70074;DHT22;57445;51.058;3.698;2022-12-20T12:13:36;13.00;99.90
70074;DHT22;57445;51.058;3.698;2022-12-20T12:16:11;12.60;99.90
70074;DHT22;57445;51.058;3.698;2022-12-20T12:18:39;12.40;99.90
70074;DHT22;57445;51.058;3.698;2022-12-20T12:21:07;12.60;99.90
70074;DHT22;57445;51.058;3.698;2022-12-20T12:23:44;12.80;99.90
70074;DHT22;57445;51.058;3.698;2022-12-20T12:26:16;12.60;99.90
70074;DHT22;57445;51.058;3.698;2022-12-20T12:28:52;12.50;99.90
70074;DHT22;57445;51.058;3.698;2022-12-20T12:31:22;12.60;99.90
70074;DHT22;57445;51.058;3.698;2022-12-20T12:33:53;12.50;99.90
70074;DHT22;57445;51.058;3.698;2022-12-20T12:36:34;12.30;99.90
70074;DHT22;57445;51.058;3.698;2022-12-20T12:42:06;12.40;99.90
70074;DHT22;57445;51.058;3.698;2022-12-20T12:44:44;12.70;99.90
70074;DHT22;57445;51.058;3.698;2022-12-20T12:47:18;12.40;99.90
70074;DHT22;57445;51.058;3.698;2022-12-20T12:49:48;12.10;99.90
70074;DHT22;57445;51.058;3.698;2022-12-20T12:52:26;12.00;99.90
70074;DHT22;57445;51.058;3.698;2022-12-20T12:54:54;12.20;99.90
70074;DHT22;57445;51.058;3.698;2022-12-20T12:57:26;12.50;99.90
70074;DHT22;57445;51.058;3.698;2022-12-20T12:59:55;12.40;99.90
70074;DHT22;57445;51.058;3.698;2022-12-20T13:05:30;12.60;99.90
70074;DHT22;57445;51.058;3.698;2022-12-20T13:07:58;12.50;99.90
70074;DHT22;57445;51.058;3.698;2022-12-20T13:13:20;12.50;99.90
70074;DHT22;57445;51.058;3.698;2022-12-20T13:15:51;12.90;99.90
70074;DHT22;57445;51.058;3.698;2022-12-20T13:18:25;12.90;99.90
70074;DHT22;57445;51.058;3.698;2022-12-20T13:23:40;12.60;99.90
70074;DHT22;57445;51.058;3.698;2022-12-20T13:28:54;12.90;99.90
70074;DHT22;57445;51.058;3.698;2022-12-20T13:31:31;12.50;99.90
70074;DHT22;57445;51.058;3.698;2022-12-20T13:34:22;12.40;99.90
70074;DHT22;57445;51.058;3.698;2022-12-20T13:36:58;12.20;99.90
70074;DHT22;57445;51.058;3.698;2022-12-20T13:39:31;12.20;99.90
70074;DHT22;57445;51.058;3.698;2022-12-20T13:42:12;12.60;99.90
70074;DHT22;57445;51.058;3.698;2022-12-20T13:44:42;12.70;99.90
70074;DHT22;57445;51.058;3.698;2022-12-20T13:47:16;12.60;99.90
70074;DHT22;57445;51.058;3.698;2022-12-20T13:49:46;12.50;99.90
70074;DHT22;57445;51.058;3.698;2022-12-20T13:52:16;12.40;99.90
70074;DHT22;57445;51.058;3.698;2022-12-20T13:54:51;12.60;99.90
70074;DHT22;57445;51.058;3.698;2022-12-20T13:57:26;12.40;99.90
70074;DHT22;57445;51.058;3.698;2022-12-20T13:59:55;12.80;99.90
70074;DHT22;57445;51.058;3.698;2022-12-20T14:02:28;12.60;99.90
70074;DHT22;57445;51.058;3.698;2022-12-20T14:04:57;12.20;99.90
70074;DHT22;57445;51.058;3.698;2022-12-20T14:07:29;12.30;99.90
70074;DHT22;57445;51.058;3.698;2022-12-20T14:09:59;12.30;99.90
70074;DHT22;57445;51.058;3.698;2022-12-20T14:12:29;12.40;99.90
70074;DHT22;57445;51.058;3.698;2022-12-20T14:15:18;12.40;99.90
70074;DHT22;57445;51.058;3.698;2022-12-20T14:17:54;12.30;99.90
70074;DHT22;57445;51.058;3.698;2022-12-20T14:20:23;12.50;99.90
70074;DHT22;57445;51.058;3.698;2022-12-20T14:23:00;12.50;99.90
70074;DHT22;57445;51.058;3.698;2022-12-20T14:25:30;12.70;99.90
70074;DHT22;57445;51.058;3.698;2022-12-20T14:27:57;12.50;99.90
70074;DHT22;57445;51.058;3.698;2022-12-20T14:30:31;12.30;99.90
70074;DHT22;57445;51.058;3.698;2022-12-20T14:33:00;12.50;99.90
70074;DHT22;57445;51.058;3.698;2022-12-20T14:35:32;13.00;99.90
70074;DHT22;57445;51.058;3.698;2022-12-20T14:38:04;12.80;99.90
70074;DHT22;57445;51.058;3.698;2022-12-20T14:40:39;12.90;99.90
70074;DHT22;57445;51.058;3.698;2022-12-20T14:43:13;12.90;99.90
70074;DHT22;57445;51.058;3.698;2022-12-20T14:45:43;12.80;99.90
70074;DHT22;57445;51.058;3.698;2022-12-20T14:48:14;13.00;99.90
70074;DHT22;57445;51.058;3.698;2022-12-20T14:50:49;12.80;99.90
70074;DHT22;57445;51.058;3.698;2022-12-20T14:53:19;13.10;99.90
70074;DHT22;57445;51.058;3.698;2022-12-20T14:55:48;13.00;99.90
70074;DHT22;57445;51.058;3.698;2022-12-20T14:58:24;12.80;99.90
70074;DHT22;57445;51.058;3.698;2022-12-20T15:00:56;12.60;99.90
70074;DHT22;57445;51.058;3.698;2022-12-20T15:03:25;12.50;99.90
70074;DHT22;57445;51.058;3.698;2022-12-20T15:05:53;12.40;99.90
70074;DHT22;57445;51.058;3.698;2022-12-20T15:08:22;12.30;99.90
70074;DHT22;57445;51.058;3.698;2022-12-20T15:10:53;11.90;99.90
70074;DHT22;57445;51.058;3.698;2022-12-20T15:13:22;11.80;99.90
70074;DHT22;57445;51.058;3.698;2022-12-20T15:15:51;12.00;99.90
70074;DHT22;57445;51.058;3.698;2022-12-20T15:18:19;12.20;99.90
70074;DHT22;57445;51.058;3.698;2022-12-20T15:20:54;12.20;99.90
70074;DHT22;57445;51.058;3.698;2022-12-20T15:23:29;12.50;99.90
70074;DHT22;57445;51.058;3.698;2022-12-20T15:26:02;12.60;99.90
70074;DHT22;57445;51.058;3.698;2022-12-20T15:28:29;12.60;99.90
70074;DHT22;57445;51.058;3.698;2022-12-20T15:31:01;12.90;99.90
70074;DHT22;57445;51.058;3.698;2022-12-20T15:33:30;12.90;99.90
70074;DHT22;57445;51.058;3.698;2022-12-20T15:36:05;12.80;99.90
70074;DHT22;57445;51.058;3.698;2022-12-20T15:38:37;13.00;99.90
70074;DHT22;57445;51.058;3.698;2022-12-20T15:41:10;12.80;99.90
70074;DHT22;57445;51.058;3.698;2022-12-20T15:43:39;12.90;99.90
70074;DHT22;57445;51.058;3.698;2022-12-20T15:46:07;12.70;99.90
70074;DHT22;57445;51.058;3.698;2022-12-20T15:48:39;12.80;99.90
70074;DHT22;57445;51.058;3.698;2022-12-20T15:51:14;13.00;99.90
70074;DHT22;57445;51.058;3.698;2022-12-20T15:53:47;12.70;99.90
70074;DHT22;57445;51.058;3.698;2022-12-20T15:56:19;12.60;99.90
70074;DHT22;57445;51.058;3.698;2022-12-20T15:58:52;12.20;99.90
70074;DHT22;57445;51.058;3.698;2022-12-20T16:01:24;12.30;99.90
70074;DHT22;57445;51.058;3.698;2022-12-20T16:03:57;12.50;99.90
70074;DHT22;57445;51.058;3.698;2022-12-20T16:06:26;12.40;99.90
70074;DHT22;57445;51.058;3.698;2022-12-20T16:08:53;12.00;99.90
70074;DHT22;57445;51.058;3.698;2022-12-20T16:11:22;12.20;99.90
70074;DHT22;57445;51.058;3.698;2022-12-20T16:13:50;12.10;99.90
70074;DHT22;57445;51.058;3.698;2022-12-20T16:16:23;12.20;99.90
70074;DHT22;57445;51.058;3.698;2022-12-20T16:18:50;12.30;99.90
70074;DHT22;57445;51.058;3.698;2022-12-20T16:21:20;12.20;99.90